Novokuybyshevsk, Russia
Current Conditions -  °F | °C
As of 9:30 PM on Saturday 20 Dec 2014 (Local Time) from UWWW Reporting Station
Haze Haze  
Wind Chill: 16°   Ceiling: 300
Heat Index: 30°   Visibility: 1mi
Dew Point: 28°   Wind: 25mph
Humidity: 93%   Direction: 190°S
Pressure: 29.68"   Gusts: 31mph
Location:  53.09°N, 49.88°E
Report Text: UWWW 201730Z 19011G14MPS 1700 BR OVC003 M01/M02 Q1005 23////3815//99// TEMPO OVC003 RMK QBB100 QFE743/0990
Loading
Personal Weather Stations






























Interactive Weather Map New forecast layout! Learn more

10-Day Weather Forecast

Advertisements
Track Severe Weather on mobile